Time,TemperatureF,DewpointF,PressureIn,WindDirection,WindDirectionDegrees,WindSpeedMPH,WindSpeedGustMPH,Humidity,HourlyPrecipIn,Conditions,Clouds,dailyrainin,SoftwareType,DateUTC
2013-01-28 00:08:00,16.5,0.3,30.29,NW,315,5.3,-999.0,48,-99.99,,,0.00,Acu-Link.com,2013-01-28 05:08:00,
2013-01-28 00:24:00,16.5,-1.1,30.28,NW,315,4.2,-999.0,45,-99.99,,,0.00,Acu-Link.com,2013-01-28 05:24:00,
2013-01-28 00:39:00,16.7,-1.4,30.27,NNW,337,7.3,-999.0,44,-99.99,,,0.00,Acu-Link.com,2013-01-28 05:39:00,
2013-01-28 00:54:00,16.9,-2.2,30.27,NNW,337,6.3,-999.0,42,-99.99,,,0.00,Acu-Link.com,2013-01-28 05:54:00,
2013-01-28 01:10:00,17.1,-2.0,30.28,NW,315,4.7,-999.0,42,-99.99,,,0.00,Acu-Link.com,2013-01-28 06:10:00,
2013-01-28 01:25:00,16.7,-2.4,30.27,NNE,22,4.7,-999.0,42,-99.99,,,0.00,Acu-Link.com,2013-01-28 06:25:00,
2013-01-28 01:40:00,16.7,-2.9,30.26,NNE,22,5.3,-999.0,41,-99.99,,,0.00,Acu-Link.com,2013-01-28 06:40:00,
2013-01-28 01:55:00,16.7,-1.9,30.26,North,0,4.7,-999.0,43,-99.99,,,0.00,Acu-Link.com,2013-01-28 06:55:00,
2013-01-28 02:10:00,16.7,-1.9,30.26,NNE,22,9.4,-999.0,43,-99.99,,,0.00,Acu-Link.com,2013-01-28 07:10:00,
2013-01-28 02:25:00,16.9,-1.7,30.26,NE,45,3.7,-999.0,43,-99.99,,,0.00,Acu-Link.com,2013-01-28 07:25:00,
2013-01-28 02:41:00,17.2,0.5,30.28,SW,225,10.4,-999.0,47,-99.99,,,0.00,Acu-Link.com,2013-01-28 07:41:00,
2013-01-28 02:56:00,18.1,-0.6,30.28,NNW,337,8.9,-999.0,43,-99.99,,,0.00,Acu-Link.com,2013-01-28 07:56:00,
2013-01-28 03:11:00,17.8,-0.4,30.27,WNW,292,5.3,-999.0,44,-99.99,,,0.00,Acu-Link.com,2013-01-28 08:11:00,
2013-01-28 03:27:00,17.4,-1.7,30.26,NW,315,5.8,-999.0,42,-99.99,,,0.00,Acu-Link.com,2013-01-28 08:27:00,
2013-01-28 03:42:00,17.4,1.1,30.25,WNW,292,6.3,-999.0,48,-99.99,,,0.00,Acu-Link.com,2013-01-28 08:42:00,
2013-01-28 03:57:00,17.6,-0.1,30.26,NW,315,5.3,-999.0,45,-99.99,,,0.00,Acu-Link.com,2013-01-28 08:57:00,
2013-01-28 04:15:00,17.6,1.7,30.26,WNW,292,5.3,-999.0,49,-99.99,,,0.00,Acu-Link.com,2013-01-28 09:15:00,
2013-01-28 04:30:00,17.6,-0.6,30.25,NNW,337,6.3,-999.0,44,-99.99,,,0.00,Acu-Link.com,2013-01-28 09:30:00,
2013-01-28 04:45:00,17.8,-0.9,30.25,NE,45,7.3,-999.0,43,-99.99,,,0.00,Acu-Link.com,2013-01-28 09:45:00,
2013-01-28 05:01:00,18.0,-0.7,30.25,WNW,292,7.8,-999.0,43,-99.99,,,0.00,Acu-Link.com,2013-01-28 10:01:00,
2013-01-28 05:16:00,18.5,0.7,30.25,NW,315,8.9,-999.0,45,-99.99,,,0.00,Acu-Link.com,2013-01-28 10:16:00,
2013-01-28 05:31:00,18.5,0.3,30.26,North,0,8.9,-999.0,44,-99.99,,,0.00,Acu-Link.com,2013-01-28 10:31:00,
2013-01-28 05:47:00,18.7,0.0,30.26,NNE,22,8.9,-999.0,43,-99.99,,,0.00,Acu-Link.com,2013-01-28 10:47:00,
2013-01-28 06:02:00,18.3,0.1,30.24,North,0,8.3,-999.0,44,-99.99,,,0.00,Acu-Link.com,2013-01-28 11:02:00,
2013-01-28 06:17:00,18.0,-0.7,30.24,North,0,7.8,-999.0,43,-99.99,,,0.00,Acu-Link.com,2013-01-28 11:17:00,
2013-01-28 06:33:00,18.0,-0.2,30.25,NNW,337,5.3,-999.0,44,-99.99,,,0.00,Acu-Link.com,2013-01-28 11:33:00,
2013-01-28 06:48:00,18.1,1.8,30.26,NW,315,9.4,-999.0,48,-99.99,,,0.00,Acu-Link.com,2013-01-28 11:48:00,
2013-01-28 07:03:00,18.3,1.0,30.25,NW,315,7.8,-999.0,46,-99.99,,,0.00,Acu-Link.com,2013-01-28 12:03:00,
2013-01-28 07:19:00,18.9,0.6,30.26,NNE,22,8.9,-999.0,44,-99.99,,,0.00,Acu-Link.com,2013-01-28 12:19:00,
2013-01-28 07:34:00,19.4,0.1,30.26,NNW,337,6.3,-999.0,42,-99.99,,,0.00,Acu-Link.com,2013-01-28 12:34:00,
2013-01-28 07:49:00,21.9,-0.3,30.25,NNW,337,3.7,-999.0,37,-99.99,,,0.00,Acu-Link.com,2013-01-28 12:49:00,
2013-01-28 08:05:00,22.5,-1.0,30.25,NE,45,2.2,-999.0,35,-99.99,,,0.00,Acu-Link.com,2013-01-28 13:05:00,
2013-01-28 08:20:00,22.8,-0.1,30.25,NNE,22,4.2,-999.0,36,-99.99,,,0.00,Acu-Link.com,2013-01-28 13:20:00,
2013-01-28 08:36:00,24.6,-0.3,30.25,ENE,67,3.7,-999.0,33,-99.99,,,0.00,Acu-Link.com,2013-01-28 13:36:00,
2013-01-28 08:51:00,24.3,-1.3,30.25,ENE,67,3.7,-999.0,32,-99.99,,,0.00,Acu-Link.com,2013-01-28 13:51:00,
2013-01-28 09:06:00,24.6,-2.4,30.24,East,90,2.7,-999.0,30,-99.99,,,0.00,Acu-Link.com,2013-01-28 14:06:00,
2013-01-28 09:22:00,26.4,-4.6,30.25,NNW,337,2.7,-999.0,25,-99.99,,,0.00,Acu-Link.com,2013-01-28 14:22:00,
2013-01-28 09:37:00,26.1,-4.9,30.23,NE,45,1.7,-999.0,25,-99.99,,,0.00,Acu-Link.com,2013-01-28 14:37:00,
2013-01-28 09:52:00,26.8,-4.3,30.24,North,0,1.7,-999.0,25,-99.99,,,0.00,Acu-Link.com,2013-01-28 14:52:00,
2013-01-28 10:07:00,26.1,-3.3,30.25,WSW,247,3.2,-999.0,27,-99.99,,,0.00,Acu-Link.com,2013-01-28 15:07:00,
2013-01-28 10:23:00,25.7,0.6,30.24,North,0,1.7,-999.0,33,-99.99,,,0.00,Acu-Link.com,2013-01-28 15:23:00,
2013-01-28 10:38:00,27.0,2.4,30.24,NW,315,2.7,-999.0,34,-99.99,,,0.00,Acu-Link.com,2013-01-28 15:38:00,
2013-01-28 10:53:00,27.1,5.5,30.23,SSE,157,2.2,-999.0,39,-99.99,,,0.00,Acu-Link.com,2013-01-28 15:53:00,
2013-01-28 11:09:00,28.0,3.9,30.21,SSE,157,2.7,-999.0,35,-99.99,,,0.00,Acu-Link.com,2013-01-28 16:09:00,
2013-01-28 11:24:00,30.2,7.1,30.20,WSW,247,2.2,-999.0,37,-99.99,,,0.00,Acu-Link.com,2013-01-28 16:24:00,
2013-01-28 11:39:00,28.2,6.5,30.18,SW,225,3.2,-999.0,39,-99.99,,,0.00,Acu-Link.com,2013-01-28 16:39:00,
2013-01-28 11:55:00,28.2,7.0,30.19,WSW,247,3.7,-999.0,40,-99.99,,,0.00,Acu-Link.com,2013-01-28 16:55:00,
2013-01-28 12:10:00,26.1,9.1,30.16,SSW,202,4.7,-999.0,48,-99.99,,,0.00,Acu-Link.com,2013-01-28 17:10:00,
2013-01-28 12:25:00,27.9,9.3,30.15,West,270,2.7,-999.0,45,-99.99,,,0.00,Acu-Link.com,2013-01-28 17:25:00,
2013-01-28 12:41:00,27.9,8.3,30.15,SW,225,4.2,-999.0,43,-99.99,,,0.00,Acu-Link.com,2013-01-28 17:41:00,
2013-01-28 12:56:00,28.4,8.3,30.14,West,270,2.2,-999.0,42,-99.99,,,0.00,Acu-Link.com,2013-01-28 17:56:00,
2013-01-28 13:11:00,28.4,9.3,30.12,WNW,292,4.2,-999.0,44,-99.99,,,0.00,Acu-Link.com,2013-01-28 18:11:00,
2013-01-28 13:27:00,27.9,8.3,30.11,SSW,202,4.2,-999.0,43,-99.99,,,0.00,Acu-Link.com,2013-01-28 18:27:00,
2013-01-28 13:42:00,28.0,9.4,30.10,SSW,202,5.8,-999.0,45,-99.99,,,0.00,Acu-Link.com,2013-01-28 18:42:00,
2013-01-28 13:57:00,27.7,9.2,30.09,SSW,202,3.7,-999.0,45,-99.99,,,0.00,Acu-Link.com,2013-01-28 18:57:00,
2013-01-28 14:13:00,27.1,9.6,30.08,SSW,202,6.3,-999.0,47,-99.99,,,0.00,Acu-Link.com,2013-01-28 19:13:00,
2013-01-28 14:28:00,27.1,10.0,30.08,SSW,202,7.3,-999.0,48,-99.99,,,0.00,Acu-Link.com,2013-01-28 19:28:00,
2013-01-28 14:43:00,27.1,13.1,30.08,SW,225,7.3,-999.0,55,-99.99,,,0.00,Acu-Link.com,2013-01-28 19:43:00,
2013-01-28 14:58:00,27.1,15.1,30.09,SSW,202,5.3,-999.0,60,-99.99,,,0.00,Acu-Link.com,2013-01-28 19:58:00,
2013-01-28 15:14:00,27.0,18.2,30.08,SW,225,5.3,-999.0,69,-99.99,,,0.00,Acu-Link.com,2013-01-28 20:14:00,
2013-01-28 15:29:00,26.4,19.6,30.07,SSW,202,5.3,-999.0,75,-99.99,,,0.00,Acu-Link.com,2013-01-28 20:29:00,
2013-01-28 15:44:00,25.9,21.2,30.05,South,180,3.7,-999.0,82,-99.99,,,0.00,Acu-Link.com,2013-01-28 20:44:00,
2013-01-28 16:00:00,25.2,21.3,30.05,ESE,112,5.3,-999.0,85,-99.99,,,0.00,Acu-Link.com,2013-01-28 21:00:00,
2013-01-28 16:15:00,24.6,21.8,30.04,ESE,112,5.3,-999.0,89,-99.99,,,0.00,Acu-Link.com,2013-01-28 21:15:00,
2013-01-28 16:30:00,24.6,22.4,30.04,ESE,112,2.7,-999.0,91,-99.99,,,0.00,Acu-Link.com,2013-01-28 21:30:00,
2013-01-28 16:46:00,24.8,22.8,30.04,NE,45,2.7,-999.0,92,-99.99,,,0.00,Acu-Link.com,2013-01-28 21:46:00,
2013-01-28 17:01:00,24.8,22.8,30.03,ESE,112,1.7,-999.0,92,-99.99,,,0.00,Acu-Link.com,2013-01-28 22:01:00,
2013-01-28 17:16:00,24.6,22.6,30.03,NE,45,2.7,-999.0,92,-99.99,,,0.00,Acu-Link.com,2013-01-28 22:16:00,
2013-01-28 17:32:00,24.3,22.3,30.03,ENE,67,2.7,-999.0,92,-99.99,,,0.00,Acu-Link.com,2013-01-28 22:32:00,
2013-01-28 17:48:00,23.9,21.9,30.02,ENE,67,2.2,-999.0,92,-99.99,,,0.00,Acu-Link.com,2013-01-28 22:48:00,
2013-01-28 18:03:00,23.5,21.5,30.01,NE,45,2.7,-999.0,92,-99.99,,,0.00,Acu-Link.com,2013-01-28 23:03:00,
2013-01-28 18:18:00,23.4,21.4,30.01,ENE,67,2.2,-999.0,92,-99.99,,,0.00,Acu-Link.com,2013-01-28 23:18:00,
2013-01-28 18:33:00,23.4,21.4,30.00,NNE,22,2.7,-999.0,92,-99.99,,,0.00,Acu-Link.com,2013-01-28 23:33:00,
2013-01-28 18:49:00,23.2,21.2,29.99,NE,45,3.7,-999.0,92,-99.99,,,0.00,Acu-Link.com,2013-01-28 23:49:00,
2013-01-28 19:04:00,23.0,21.0,29.99,NE,45,2.2,-999.0,92,-99.99,,,0.00,Acu-Link.com,2013-01-29 00:04:00,
2013-01-28 19:19:00,23.0,21.0,29.99,NNE,22,2.7,-999.0,92,-99.99,,,0.00,Acu-Link.com,2013-01-29 00:19:00,
2013-01-28 19:35:00,22.8,20.8,29.98,NE,45,2.7,-999.0,92,-99.99,,,0.00,Acu-Link.com,2013-01-29 00:35:00,
2013-01-28 19:50:00,22.6,20.6,29.95,NE,45,3.7,-999.0,92,-99.99,,,0.00,Acu-Link.com,2013-01-29 00:50:00,
2013-01-28 20:05:00,22.6,20.6,29.95,NE,45,2.7,-999.0,92,-99.99,,,0.00,Acu-Link.com,2013-01-29 01:05:00,
2013-01-28 20:21:00,22.6,20.6,29.94,NE,45,2.7,-999.0,92,-99.99,,,0.00,Acu-Link.com,2013-01-29 01:21:00,
2013-01-28 20:36:00,22.6,20.6,29.94,NE,45,2.7,-999.0,92,-99.99,,,0.00,Acu-Link.com,2013-01-29 01:36:00,
2013-01-28 20:51:00,22.6,20.6,29.94,NE,45,5.3,-999.0,92,-99.99,,,0.00,Acu-Link.com,2013-01-29 01:51:00,
2013-01-28 21:07:00,22.5,20.5,29.91,NE,45,4.7,-999.0,92,-99.99,,,0.00,Acu-Link.com,2013-01-29 02:07:00,
2013-01-28 21:22:00,22.5,20.5,29.92,NE,45,3.2,-999.0,92,-99.99,,,0.00,Acu-Link.com,2013-01-29 02:22:00,
2013-01-28 21:37:00,22.3,20.3,29.91,NE,45,3.7,-999.0,92,-99.99,,,0.00,Acu-Link.com,2013-01-29 02:37:00,
2013-01-28 21:53:00,22.3,20.3,29.92,NE,45,3.7,-999.0,92,-99.99,,,0.00,Acu-Link.com,2013-01-29 02:53:00,
2013-01-28 22:08:00,22.3,20.1,29.91,NNE,22,4.2,-999.0,91,-99.99,,,0.00,Acu-Link.com,2013-01-29 03:08:00,
2013-01-28 22:23:00,22.3,20.1,29.92,North,0,3.7,-999.0,91,-99.99,,,0.00,Acu-Link.com,2013-01-29 03:23:00,
2013-01-28 22:39:00,22.3,20.1,29.92,NNE,22,4.2,-999.0,91,-99.99,,,0.00,Acu-Link.com,2013-01-29 03:39:00,
2013-01-28 22:54:00,22.3,20.1,29.92,NNE,22,4.2,-999.0,91,-99.99,,,0.00,Acu-Link.com,2013-01-29 03:54:00,
2013-01-28 23:09:00,22.3,20.1,29.92,NE,45,4.2,-999.0,91,-99.99,,,0.00,Acu-Link.com,2013-01-29 04:09:00,
2013-01-28 23:24:00,22.3,20.1,29.92,ENE,67,2.2,-999.0,91,-99.99,,,0.00,Acu-Link.com,2013-01-29 04:24:00,
2013-01-28 23:40:00,22.3,20.1,29.92,ENE,67,5.3,-999.0,91,-99.99,,,0.00,Acu-Link.com,2013-01-29 04:40:00,
2013-01-28 23:55:00,22.3,20.1,29.92,NE,45,4.7,-999.0,91,-99.99,,,0.00,Acu-Link.com,2013-01-29 04:55:00,